sensor_id;sensor_type;location;lat;lon;timestamp;pressure;altitude;pressure_sealevel;temperature;humidity
19831;BME280;10076;52.008;4.708;2023-03-29T00:02:24;101623.00;;;8.72;100.00
19831;BME280;10076;52.008;4.708;2023-03-29T00:04:57;101638.19;;;8.84;100.00
19831;BME280;10076;52.008;4.708;2023-03-29T00:07:26;101629.59;;;8.97;100.00
19831;BME280;10076;52.008;4.708;2023-03-29T00:09:54;101621.59;;;8.99;100.00
19831;BME280;10076;52.008;4.708;2023-03-29T00:12:19;101625.03;;;8.84;100.00
19831;BME280;10076;52.008;4.708;2023-03-29T00:14:44;101607.75;;;9.12;100.00
19831;BME280;10076;52.008;4.708;2023-03-29T00:17:10;101606.66;;;8.99;100.00
19831;BME280;10076;52.008;4.708;2023-03-29T00:19:35;101612.56;;;8.88;100.00
19831;BME280;10076;52.008;4.708;2023-03-29T00:22:02;101601.22;;;9.02;100.00
19831;BME280;10076;52.008;4.708;2023-03-29T00:24:30;101592.28;;;8.90;100.00
19831;BME280;10076;52.008;4.708;2023-03-29T00:26:55;101586.69;;;8.79;100.00
19831;BME280;10076;52.008;4.708;2023-03-29T00:29:20;101591.63;;;8.85;100.00
19831;BME280;10076;52.008;4.708;2023-03-29T00:31:46;101591.00;;;8.96;100.00
19831;BME280;10076;52.008;4.708;2023-03-29T00:34:18;101586.66;;;9.12;100.00
19831;BME280;10076;52.008;4.708;2023-03-29T00:36:44;101591.84;;;9.14;100.00
19831;BME280;10076;52.008;4.708;2023-03-29T00:39:09;101588.06;;;9.02;100.00
19831;BME280;10076;52.008;4.708;2023-03-29T00:41:34;101576.81;;;9.31;100.00
19831;BME280;10076;52.008;4.708;2023-03-29T00:44:02;101586.56;;;9.14;100.00
19831;BME280;10076;52.008;4.708;2023-03-29T00:46:29;101577.78;;;9.13;100.00
19831;BME280;10076;52.008;4.708;2023-03-29T00:49:08;101574.19;;;8.99;100.00
19831;BME280;10076;52.008;4.708;2023-03-29T00:51:37;101564.03;;;9.08;100.00
19831;BME280;10076;52.008;4.708;2023-03-29T00:54:08;101559.84;;;9.04;100.00
19831;BME280;10076;52.008;4.708;2023-03-29T00:56:39;101564.56;;;9.30;100.00
19831;BME280;10076;52.008;4.708;2023-03-29T00:59:11;101562.13;;;9.27;100.00
19831;BME280;10076;52.008;4.708;2023-03-29T01:01:56;101559.72;;;9.23;100.00
19831;BME280;10076;52.008;4.708;2023-03-29T01:04:43;101541.25;;;9.07;100.00
19831;BME280;10076;52.008;4.708;2023-03-29T01:07:24;101559.41;;;8.96;100.00
19831;BME280;10076;52.008;4.708;2023-03-29T01:09:54;101556.94;;;8.93;100.00
19831;BME280;10076;52.008;4.708;2023-03-29T01:12:28;101548.72;;;8.99;100.00
19831;BME280;10076;52.008;4.708;2023-03-29T01:15:09;101544.97;;;9.03;100.00
19831;BME280;10076;52.008;4.708;2023-03-29T01:17:35;101546.91;;;9.00;100.00
19831;BME280;10076;52.008;4.708;2023-03-29T01:20:10;101543.72;;;9.10;100.00
19831;BME280;10076;52.008;4.708;2023-03-29T01:23:00;101548.47;;;9.04;100.00
19831;BME280;10076;52.008;4.708;2023-03-29T01:28:16;101531.34;;;8.95;100.00
19831;BME280;10076;52.008;4.708;2023-03-29T01:30:49;101522.13;;;9.19;100.00
19831;BME280;10076;52.008;4.708;2023-03-29T01:33:30;101521.53;;;9.14;100.00
19831;BME280;10076;52.008;4.708;2023-03-29T01:36:11;101525.19;;;9.12;100.00
19831;BME280;10076;52.008;4.708;2023-03-29T01:38:43;101527.69;;;9.30;100.00
19831;BME280;10076;52.008;4.708;2023-03-29T01:41:10;101516.28;;;9.14;100.00
19831;BME280;10076;52.008;4.708;2023-03-29T01:43:44;101516.31;;;9.45;100.00
19831;BME280;10076;52.008;4.708;2023-03-29T01:46:27;101520.56;;;9.32;100.00
19831;BME280;10076;52.008;4.708;2023-03-29T01:49:03;101517.31;;;9.27;100.00
19831;BME280;10076;52.008;4.708;2023-03-29T01:51:35;101514.09;;;9.22;100.00
19831;BME280;10076;52.008;4.708;2023-03-29T01:54:09;101516.97;;;9.18;100.00
19831;BME280;10076;52.008;4.708;2023-03-29T01:56:39;101512.06;;;9.27;100.00
19831;BME280;10076;52.008;4.708;2023-03-29T01:59:09;101505.66;;;9.31;100.00
19831;BME280;10076;52.008;4.708;2023-03-29T02:01:40;101509.16;;;9.32;100.00
19831;BME280;10076;52.008;4.708;2023-03-29T02:04:11;101513.41;;;9.34;100.00
19831;BME280;10076;52.008;4.708;2023-03-29T02:06:39;101513.25;;;9.37;100.00
19831;BME280;10076;52.008;4.708;2023-03-29T02:09:05;101515.38;;;9.31;100.00
19831;BME280;10076;52.008;4.708;2023-03-29T02:11:32;101502.53;;;9.40;100.00
19831;BME280;10076;52.008;4.708;2023-03-29T02:13:59;101501.84;;;9.37;100.00
19831;BME280;10076;52.008;4.708;2023-03-29T02:16:25;101504.84;;;9.46;100.00
19831;BME280;10076;52.008;4.708;2023-03-29T02:18:52;101501.19;;;9.33;100.00
19831;BME280;10076;52.008;4.708;2023-03-29T02:21:24;101489.97;;;9.45;100.00
19831;BME280;10076;52.008;4.708;2023-03-29T02:23:51;101491.91;;;9.57;100.00
19831;BME280;10076;52.008;4.708;2023-03-29T02:26:18;101484.44;;;9.50;100.00
19831;BME280;10076;52.008;4.708;2023-03-29T02:28:44;101481.59;;;9.68;100.00
19831;BME280;10076;52.008;4.708;2023-03-29T02:33:50;101473.47;;;9.57;100.00
19831;BME280;10076;52.008;4.708;2023-03-29T02:36:22;101469.22;;;9.55;100.00
19831;BME280;10076;52.008;4.708;2023-03-29T02:38:50;101472.78;;;9.69;100.00
19831;BME280;10076;52.008;4.708;2023-03-29T02:41:16;101471.38;;;9.77;100.00
19831;BME280;10076;52.008;4.708;2023-03-29T02:43:43;101465.19;;;9.78;100.00
19831;BME280;10076;52.008;4.708;2023-03-29T02:46:11;101460.03;;;9.91;100.00
19831;BME280;10076;52.008;4.708;2023-03-29T02:48:37;101455.91;;;9.71;100.00
19831;BME280;10076;52.008;4.708;2023-03-29T02:51:08;101456.75;;;9.72;100.00
19831;BME280;10076;52.008;4.708;2023-03-29T02:53:41;101455.00;;;9.57;100.00
19831;BME280;10076;52.008;4.708;2023-03-29T02:56:08;101451.19;;;9.47;100.00
19831;BME280;10076;52.008;4.708;2023-03-29T02:58:34;101440.31;;;9.53;100.00
19831;BME280;10076;52.008;4.708;2023-03-29T03:01:01;101448.28;;;9.52;100.00
19831;BME280;10076;52.008;4.708;2023-03-29T03:03:29;101450.66;;;9.71;100.00
19831;BME280;10076;52.008;4.708;2023-03-29T03:05:55;101449.03;;;9.69;100.00
19831;BME280;10076;52.008;4.708;2023-03-29T03:08:22;101452.41;;;9.71;100.00
19831;BME280;10076;52.008;4.708;2023-03-29T03:10:47;101436.19;;;9.63;100.00
19831;BME280;10076;52.008;4.708;2023-03-29T03:13:13;101441.88;;;9.71;100.00
19831;BME280;10076;52.008;4.708;2023-03-29T03:15:38;101448.84;;;9.72;100.00
19831;BME280;10076;52.008;4.708;2023-03-29T03:18:07;101439.41;;;9.68;100.00
19831;BME280;10076;52.008;4.708;2023-03-29T03:20:33;101439.22;;;9.71;100.00
19831;BME280;10076;52.008;4.708;2023-03-29T03:22:59;101436.94;;;9.65;100.00
19831;BME280;10076;52.008;4.708;2023-03-29T03:25:26;101438.28;;;9.72;100.00
19831;BME280;10076;52.008;4.708;2023-03-29T03:27:52;101438.06;;;9.61;100.00
19831;BME280;10076;52.008;4.708;2023-03-29T03:30:18;101433.81;;;9.88;100.00
19831;BME280;10076;52.008;4.708;2023-03-29T03:32:45;101435.34;;;9.62;100.00
19831;BME280;10076;52.008;4.708;2023-03-29T03:35:10;101432.94;;;9.73;100.00
19831;BME280;10076;52.008;4.708;2023-03-29T03:37:36;101433.72;;;9.60;100.00
19831;BME280;10076;52.008;4.708;2023-03-29T03:40:03;101427.59;;;9.75;100.00
19831;BME280;10076;52.008;4.708;2023-03-29T03:42:29;101421.75;;;9.70;100.00
19831;BME280;10076;52.008;4.708;2023-03-29T03:44:55;101419.22;;;9.82;100.00
19831;BME280;10076;52.008;4.708;2023-03-29T03:47:21;101423.06;;;9.77;100.00
19831;BME280;10076;52.008;4.708;2023-03-29T03:49:46;101422.00;;;9.95;100.00
19831;BME280;10076;52.008;4.708;2023-03-29T03:52:12;101421.03;;;9.82;100.00
19831;BME280;10076;52.008;4.708;2023-03-29T03:54:37;101423.06;;;9.77;100.00
19831;BME280;10076;52.008;4.708;2023-03-29T03:57:03;101422.00;;;9.65;100.00
19831;BME280;10076;52.008;4.708;2023-03-29T03:59:28;101423.03;;;9.92;100.00
19831;BME280;10076;52.008;4.708;2023-03-29T04:01:53;101423.38;;;9.86;100.00
19831;BME280;10076;52.008;4.708;2023-03-29T04:04:19;101426.38;;;9.80;100.00
19831;BME280;10076;52.008;4.708;2023-03-29T04:06:44;101433.13;;;9.70;100.00
19831;BME280;10076;52.008;4.708;2023-03-29T04:09:10;101431.75;;;9.79;100.00
19831;BME280;10076;52.008;4.708;2023-03-29T04:11:36;101423.41;;;9.71;100.00
19831;BME280;10076;52.008;4.708;2023-03-29T04:14:02;101418.31;;;9.68;100.00
19831;BME280;10076;52.008;4.708;2023-03-29T04:16:28;101412.09;;;9.84;100.00
19831;BME280;10076;52.008;4.708;2023-03-29T04:18:54;101419.00;;;9.71;100.00
19831;BME280;10076;52.008;4.708;2023-03-29T04:21:19;101414.03;;;9.81;100.00
19831;BME280;10076;52.008;4.708;2023-03-29T04:23:45;101410.97;;;9.88;100.00
19831;BME280;10076;52.008;4.708;2023-03-29T04:26:12;101405.56;;;9.76;100.00
19831;BME280;10076;52.008;4.708;2023-03-29T04:28:42;101403.44;;;9.96;100.00
19831;BME280;10076;52.008;4.708;2023-03-29T04:31:11;101404.44;;;9.80;100.00
19831;BME280;10076;52.008;4.708;2023-03-29T04:33:37;101395.28;;;9.85;100.00
19831;BME280;10076;52.008;4.708;2023-03-29T04:36:03;101392.84;;;9.98;100.00
19831;BME280;10076;52.008;4.708;2023-03-29T04:38:29;101392.28;;;9.77;100.00
19831;BME280;10076;52.008;4.708;2023-03-29T04:40:54;101390.72;;;9.73;100.00
19831;BME280;10076;52.008;4.708;2023-03-29T04:43:20;101398.22;;;9.81;100.00
19831;BME280;10076;52.008;4.708;2023-03-29T04:45:46;101394.66;;;9.82;100.00
19831;BME280;10076;52.008;4.708;2023-03-29T04:48:12;101389.75;;;9.90;100.00
19831;BME280;10076;52.008;4.708;2023-03-29T04:50:37;101398.22;;;9.81;100.00
19831;BME280;10076;52.008;4.708;2023-03-29T04:53:02;101397.25;;;9.97;100.00
19831;BME280;10076;52.008;4.708;2023-03-29T04:55:45;101386.63;;;9.99;100.00
19831;BME280;10076;52.008;4.708;2023-03-29T04:58:28;101389.16;;;10.00;100.00
19831;BME280;10076;52.008;4.708;2023-03-29T05:00:56;101379.44;;;10.01;100.00
19831;BME280;10076;52.008;4.708;2023-03-29T05:03:23;101384.38;;;10.07;100.00
19831;BME280;10076;52.008;4.708;2023-03-29T05:05:48;101384.94;;;9.98;100.00
19831;BME280;10076;52.008;4.708;2023-03-29T05:08:14;101378.69;;;9.69;100.00
19831;BME280;10076;52.008;4.708;2023-03-29T05:10:41;101381.47;;;9.96;100.00
19831;BME280;10076;52.008;4.708;2023-03-29T05:13:08;101389.59;;;9.93;100.00
19831;BME280;10076;52.008;4.708;2023-03-29T05:15:34;101388.97;;;9.88;100.00
19831;BME280;10076;52.008;4.708;2023-03-29T05:18:00;101392.47;;;10.04;100.00
19831;BME280;10076;52.008;4.708;2023-03-29T05:20:27;101392.91;;;9.96;100.00
19831;BME280;10076;52.008;4.708;2023-03-29T05:22:53;101399.19;;;9.94;100.00
19831;BME280;10076;52.008;4.708;2023-03-29T05:25:18;101402.78;;;9.93;100.00
19831;BME280;10076;52.008;4.708;2023-03-29T05:27:44;101408.88;;;10.09;100.00
19831;BME280;10076;52.008;4.708;2023-03-29T05:30:11;101404.75;;;10.19;100.00
19831;BME280;10076;52.008;4.708;2023-03-29T05:32:37;101399.72;;;10.00;100.00
19831;BME280;10076;52.008;4.708;2023-03-29T05:35:03;101402.09;;;10.05;100.00
19831;BME280;10076;52.008;4.708;2023-03-29T05:37:30;101408.69;;;9.82;100.00
19831;BME280;10076;52.008;4.708;2023-03-29T05:39:57;101408.50;;;10.15;100.00
19831;BME280;10076;52.008;4.708;2023-03-29T05:42:23;101396.91;;;9.88;100.00
19831;BME280;10076;52.008;4.708;2023-03-29T05:44:48;101403.88;;;9.89;100.00
19831;BME280;10076;52.008;4.708;2023-03-29T05:47:14;101405.31;;;10.10;100.00
19831;BME280;10076;52.008;4.708;2023-03-29T05:49:39;101406.34;;;9.92;100.00
19831;BME280;10076;52.008;4.708;2023-03-29T05:52:05;101409.72;;;9.94;100.00
19831;BME280;10076;52.008;4.708;2023-03-29T05:54:30;101416.22;;;10.04;100.00
19831;BME280;10076;52.008;4.708;2023-03-29T05:56:56;101407.06;;;10.09;100.00
19831;BME280;10076;52.008;4.708;2023-03-29T05:59:21;101406.59;;;10.03;100.00
19831;BME280;10076;52.008;4.708;2023-03-29T06:01:47;101409.41;;;10.00;100.00
19831;BME280;10076;52.008;4.708;2023-03-29T06:04:13;101411.50;;;10.09;100.00
19831;BME280;10076;52.008;4.708;2023-03-29T06:06:39;101404.38;;;10.25;100.00
19831;BME280;10076;52.008;4.708;2023-03-29T06:09:06;101410.78;;;10.21;100.00
19831;BME280;10076;52.008;4.708;2023-03-29T06:11:31;101405.88;;;10.29;100.00
19831;BME280;10076;52.008;4.708;2023-03-29T06:13:57;101408.34;;;10.32;100.00
19831;BME280;10076;52.008;4.708;2023-03-29T06:16:22;101402.31;;;10.30;100.00
19831;BME280;10076;52.008;4.708;2023-03-29T06:18:48;101405.50;;;10.34;100.00
19831;BME280;10076;52.008;4.708;2023-03-29T06:21:13;101404.66;;;10.34;100.00
19831;BME280;10076;52.008;4.708;2023-03-29T06:23:39;101400.16;;;10.36;100.00
19831;BME280;10076;52.008;4.708;2023-03-29T06:26:04;101397.69;;;10.33;100.00
19831;BME280;10076;52.008;4.708;2023-03-29T06:28:30;101389.41;;;10.53;100.00
19831;BME280;10076;52.008;4.708;2023-03-29T06:30:56;101401.94;;;10.49;100.00
19831;BME280;10076;52.008;4.708;2023-03-29T06:33:27;101407.59;;;10.57;100.00
19831;BME280;10076;52.008;4.708;2023-03-29T06:35:53;101416.28;;;10.59;100.00
19831;BME280;10076;52.008;4.708;2023-03-29T06:38:19;101421.09;;;10.67;100.00
19831;BME280;10076;52.008;4.708;2023-03-29T06:40:45;101414.03;;;10.67;100.00
19831;BME280;10076;52.008;4.708;2023-03-29T06:43:11;101418.94;;;10.73;100.00
19831;BME280;10076;52.008;4.708;2023-03-29T06:45:37;101419.88;;;10.72;100.00
19831;BME280;10076;52.008;4.708;2023-03-29T06:48:04;101418.84;;;10.89;100.00
19831;BME280;10076;52.008;4.708;2023-03-29T06:50:30;101411.19;;;10.84;100.00
19831;BME280;10076;52.008;4.708;2023-03-29T06:52:55;101418.94;;;10.73;100.00
19831;BME280;10076;52.008;4.708;2023-03-29T06:55:21;101430.34;;;10.74;100.00
19831;BME280;10076;52.008;4.708;2023-03-29T06:57:47;101426.16;;;10.84;100.00
19831;BME280;10076;52.008;4.708;2023-03-29T07:00:14;101428.16;;;10.94;100.00
19831;BME280;10076;52.008;4.708;2023-03-29T07:02:46;101438.28;;;10.88;100.00
19831;BME280;10076;52.008;4.708;2023-03-29T07:05:12;101442.09;;;11.10;100.00
19831;BME280;10076;52.008;4.708;2023-03-29T07:07:39;101433.25;;;10.97;100.00
19831;BME280;10076;52.008;4.708;2023-03-29T07:10:30;101433.88;;;11.14;100.00
19831;BME280;10076;52.008;4.708;2023-03-29T07:12:59;101435.31;;;11.06;100.00
19831;BME280;10076;52.008;4.708;2023-03-29T07:15:26;101441.88;;;11.27;100.00
19831;BME280;10076;52.008;4.708;2023-03-29T07:17:52;101425.00;;;11.15;100.00
19831;BME280;10076;52.008;4.708;2023-03-29T07:20:17;101429.63;;;11.12;100.00
19831;BME280;10076;52.008;4.708;2023-03-29T07:22:44;101434.19;;;11.36;100.00
19831;BME280;10076;52.008;4.708;2023-03-29T07:25:11;101430.44;;;11.40;100.00
19831;BME280;10076;52.008;4.708;2023-03-29T07:27:38;101436.19;;;11.33;100.00
19831;BME280;10076;52.008;4.708;2023-03-29T07:30:05;101444.88;;;11.35;100.00
19831;BME280;10076;52.008;4.708;2023-03-29T07:32:35;101446.16;;;11.56;100.00
19831;BME280;10076;52.008;4.708;2023-03-29T07:35:00;101455.72;;;11.44;100.00
19831;BME280;10076;52.008;4.708;2023-03-29T07:37:28;101451.38;;;11.43;100.00
19831;BME280;10076;52.008;4.708;2023-03-29T07:39:53;101447.78;;;11.44;100.00
19831;BME280;10076;52.008;4.708;2023-03-29T07:42:19;101439.75;;;11.46;100.00
19831;BME280;10076;52.008;4.708;2023-03-29T07:44:44;101441.84;;;11.55;100.00
19831;BME280;10076;52.008;4.708;2023-03-29T07:47:09;101433.53;;;11.61;100.00
19831;BME280;10076;52.008;4.708;2023-03-29T07:49:35;101439.03;;;11.70;100.00
19831;BME280;10076;52.008;4.708;2023-03-29T07:52:00;101439.22;;;11.93;100.00
19831;BME280;10076;52.008;4.708;2023-03-29T07:54:26;101439.63;;;11.87;100.00
19831;BME280;10076;52.008;4.708;2023-03-29T07:56:51;101441.66;;;11.96;100.00
19831;BME280;10076;52.008;4.708;2023-03-29T07:59:17;101439.34;;;11.92;100.00
19831;BME280;10076;52.008;4.708;2023-03-29T08:01:42;101442.78;;;12.19;100.00
19831;BME280;10076;52.008;4.708;2023-03-29T08:04:08;101441.41;;;12.38;100.00
19831;BME280;10076;52.008;4.708;2023-03-29T08:06:34;101439.22;;;12.44;100.00
19831;BME280;10076;52.008;4.708;2023-03-29T08:08:59;101436.13;;;12.63;100.00
19831;BME280;10076;52.008;4.708;2023-03-29T08:11:24;101435.06;;;12.78;100.00
19831;BME280;10076;52.008;4.708;2023-03-29T08:13:50;101437.19;;;12.98;100.00
19831;BME280;10076;52.008;4.708;2023-03-29T08:16:16;101440.13;;;13.18;100.00
19831;BME280;10076;52.008;4.708;2023-03-29T08:18:41;101439.94;;;13.09;100.00
19831;BME280;10076;52.008;4.708;2023-03-29T08:21:07;101435.69;;;12.81;100.00
19831;BME280;10076;52.008;4.708;2023-03-29T08:23:32;101433.03;;;12.81;100.00
19831;BME280;10076;52.008;4.708;2023-03-29T08:25:58;101428.81;;;12.79;100.00
19831;BME280;10076;52.008;4.708;2023-03-29T08:28:23;101432.81;;;12.72;100.00
19831;BME280;10076;52.008;4.708;2023-03-29T08:30:49;101426.38;;;12.88;100.00
19831;BME280;10076;52.008;4.708;2023-03-29T08:33:14;101432.41;;;13.03;100.00
19831;BME280;10076;52.008;4.708;2023-03-29T08:35:40;101428.06;;;13.02;100.00
19831;BME280;10076;52.008;4.708;2023-03-29T08:38:06;101425.19;;;13.40;100.00
19831;BME280;10076;52.008;4.708;2023-03-29T08:40:32;101422.66;;;13.39;100.00
19831;BME280;10076;52.008;4.708;2023-03-29T08:43:15;101421.50;;;13.30;100.00
19831;BME280;10076;52.008;4.708;2023-03-29T08:50:49;101421.38;;;13.44;100.00
19831;BME280;10076;52.008;4.708;2023-03-29T08:53:31;101421.75;;;13.51;100.00
19831;BME280;10076;52.008;4.708;2023-03-29T08:55:58;101428.56;;;13.42;100.00
19831;BME280;10076;52.008;4.708;2023-03-29T08:58:29;101435.06;;;13.62;100.00
19831;BME280;10076;52.008;4.708;2023-03-29T09:00:57;101427.03;;;13.63;100.00
19831;BME280;10076;52.008;4.708;2023-03-29T09:06:27;101430.47;;;13.40;100.00
19831;BME280;10076;52.008;4.708;2023-03-29T09:08:52;101429.66;;;13.40;100.00
19831;BME280;10076;52.008;4.708;2023-03-29T09:22:23;101421.81;;;13.85;100.00
19831;BME280;10076;52.008;4.708;2023-03-29T09:25:05;101427.63;;;13.90;100.00
19831;BME280;10076;52.008;4.708;2023-03-29T09:30:18;101432.13;;;14.00;100.00
19831;BME280;10076;52.008;4.708;2023-03-29T09:36:00;101435.38;;;14.04;100.00
19831;BME280;10076;52.008;4.708;2023-03-29T09:38:28;101432.09;;;14.13;100.00
19831;BME280;10076;52.008;4.708;2023-03-29T09:41:01;101448.78;;;14.26;100.00
19831;BME280;10076;52.008;4.708;2023-03-29T09:43:35;101436.97;;;14.41;100.00
19831;BME280;10076;52.008;4.708;2023-03-29T09:46:05;101441.09;;;14.45;100.00
19831;BME280;10076;52.008;4.708;2023-03-29T09:48:37;101437.75;;;14.64;100.00
19831;BME280;10076;52.008;4.708;2023-03-29T09:51:06;101445.84;;;14.63;100.00
19831;BME280;10076;52.008;4.708;2023-03-29T09:53:33;101441.84;;;14.57;100.00
19831;BME280;10076;52.008;4.708;2023-03-29T09:55:59;101431.56;;;14.53;100.00
19831;BME280;10076;52.008;4.708;2023-03-29T09:58:27;101434.69;;;14.47;100.00
19831;BME280;10076;52.008;4.708;2023-03-29T10:01:00;101433.84;;;14.36;100.00
19831;BME280;10076;52.008;4.708;2023-03-29T10:03:29;101435.38;;;14.27;100.00
19831;BME280;10076;52.008;4.708;2023-03-29T10:05:57;101442.03;;;14.33;100.00
19831;BME280;10076;52.008;4.708;2023-03-29T10:08:35;101445.53;;;14.22;100.00
19831;BME280;10076;52.008;4.708;2023-03-29T10:11:08;101429.81;;;13.96;100.00
19831;BME280;10076;52.008;4.708;2023-03-29T10:13:43;101432.56;;;14.18;100.00
19831;BME280;10076;52.008;4.708;2023-03-29T10:16:18;101438.38;;;14.23;100.00
19831;BME280;10076;52.008;4.708;2023-03-29T10:18:44;101427.13;;;14.19;100.00
19831;BME280;10076;52.008;4.708;2023-03-29T10:21:13;101433.47;;;14.29;100.00
19831;BME280;10076;52.008;4.708;2023-03-29T10:23:40;101427.91;;;14.32;100.00
19831;BME280;10076;52.008;4.708;2023-03-29T10:26:30;101430.53;;;14.21;100.00
19831;BME280;10076;52.008;4.708;2023-03-29T10:28:54;101428.88;;;13.97;100.00
19831;BME280;10076;52.008;4.708;2023-03-29T10:31:22;101435.97;;;13.96;100.00
19831;BME280;10076;52.008;4.708;2023-03-29T10:33:53;101428.44;;;13.56;100.00
19831;BME280;10076;52.008;4.708;2023-03-29T10:36:21;101414.72;;;13.62;100.00
19831;BME280;10076;52.008;4.708;2023-03-29T10:38:47;101408.25;;;13.77;100.00
19831;BME280;10076;52.008;4.708;2023-03-29T10:41:15;101405.19;;;13.94;100.00
19831;BME280;10076;52.008;4.708;2023-03-29T10:43:46;101396.34;;;14.17;100.00
19831;BME280;10076;52.008;4.708;2023-03-29T10:46:40;101388.44;;;14.04;100.00
19831;BME280;10076;52.008;4.708;2023-03-29T10:49:18;101384.34;;;14.00;100.00
19831;BME280;10076;52.008;4.708;2023-03-29T10:51:46;101381.41;;;14.27;100.00
19831;BME280;10076;52.008;4.708;2023-03-29T10:54:16;101382.88;;;14.31;100.00
19831;BME280;10076;52.008;4.708;2023-03-29T10:56:56;101379.47;;;14.40;100.00
19831;BME280;10076;52.008;4.708;2023-03-29T10:59:26;101376.47;;;14.55;100.00
19831;BME280;10076;52.008;4.708;2023-03-29T11:02:21;101377.56;;;14.52;100.00
19831;BME280;10076;52.008;4.708;2023-03-29T11:07:43;101369.47;;;14.65;100.00
19831;BME280;10076;52.008;4.708;2023-03-29T11:21:20;101387.22;;;14.97;100.00
19831;BME280;10076;52.008;4.708;2023-03-29T11:29:30;101396.66;;;14.79;100.00
19831;BME280;10076;52.008;4.708;2023-03-29T11:37:29;101402.56;;;14.05;100.00
19831;BME280;10076;52.008;4.708;2023-03-29T11:42:33;101404.03;;;14.09;100.00
19831;BME280;10076;52.008;4.708;2023-03-29T11:45:01;101405.59;;;14.00;100.00
19831;BME280;10076;52.008;4.708;2023-03-29T11:47:33;101393.50;;;14.07;100.00
19831;BME280;10076;52.008;4.708;2023-03-29T11:50:21;101395.31;;;13.96;100.00
19831;BME280;10076;52.008;4.708;2023-03-29T11:52:58;101399.75;;;13.95;100.00
19831;BME280;10076;52.008;4.708;2023-03-29T11:55:30;101401.84;;;14.03;100.00
19831;BME280;10076;52.008;4.708;2023-03-29T11:58:01;101404.91;;;14.09;100.00
19831;BME280;10076;52.008;4.708;2023-03-29T12:00:36;101385.88;;;13.92;100.00
19831;BME280;10076;52.008;4.708;2023-03-29T12:06:05;101379.75;;;13.68;100.00
19831;BME280;10076;52.008;4.708;2023-03-29T12:08:44;101386.00;;;14.01;100.00
19831;BME280;10076;52.008;4.708;2023-03-29T12:11:18;101378.47;;;13.84;100.00
19831;BME280;10076;52.008;4.708;2023-03-29T12:13:58;101360.38;;;13.89;100.00
19831;BME280;10076;52.008;4.708;2023-03-29T12:16:34;101370.41;;;13.86;100.00
19831;BME280;10076;52.008;4.708;2023-03-29T12:19:11;101354.38;;;13.87;100.00
19831;BME280;10076;52.008;4.708;2023-03-29T12:21:39;101363.00;;;13.78;100.00
19831;BME280;10076;52.008;4.708;2023-03-29T12:24:10;101358.16;;;14.07;100.00
19831;BME280;10076;52.008;4.708;2023-03-29T12:29:57;101373.88;;;14.10;100.00
19831;BME280;10076;52.008;4.708;2023-03-29T12:32:53;101356.91;;;14.23;100.00
19831;BME280;10076;52.008;4.708;2023-03-29T12:38:25;101340.63;;;14.60;100.00
19831;BME280;10076;52.008;4.708;2023-03-29T12:40:57;101340.97;;;14.56;100.00
19831;BME280;10076;52.008;4.708;2023-03-29T12:43:35;101327.03;;;15.07;100.00
19831;BME280;10076;52.008;4.708;2023-03-29T12:48:46;101318.84;;;15.62;100.00
19831;BME280;10076;52.008;4.708;2023-03-29T12:51:15;101307.19;;;15.94;100.00
19831;BME280;10076;52.008;4.708;2023-03-29T12:53:45;101305.63;;;16.32;100.00
19831;BME280;10076;52.008;4.708;2023-03-29T12:56:12;101302.22;;;16.60;100.00
19831;BME280;10076;52.008;4.708;2023-03-29T13:01:22;101298.88;;;17.26;100.00
19831;BME280;10076;52.008;4.708;2023-03-29T13:03:50;101293.97;;;17.68;100.00
19831;BME280;10076;52.008;4.708;2023-03-29T13:09:29;101309.25;;;17.10;100.00
19831;BME280;10076;52.008;4.708;2023-03-29T13:14:45;101290.19;;;17.52;100.00
19831;BME280;10076;52.008;4.708;2023-03-29T13:22:53;101281.16;;;17.25;100.00
19831;BME280;10076;52.008;4.708;2023-03-29T13:28:31;101276.03;;;16.84;100.00
19831;BME280;10076;52.008;4.708;2023-03-29T13:34:01;101260.75;;;16.86;100.00
19831;BME280;10076;52.008;4.708;2023-03-29T13:39:19;101249.66;;;17.00;100.00
19831;BME280;10076;52.008;4.708;2023-03-29T13:41:49;101243.22;;;17.12;100.00
19831;BME280;10076;52.008;4.708;2023-03-29T13:46:47;101245.94;;;17.40;100.00
19831;BME280;10076;52.008;4.708;2023-03-29T13:49:15;101240.44;;;17.41;100.00
19831;BME280;10076;52.008;4.708;2023-03-29T13:52:01;101240.84;;;17.65;100.00
19831;BME280;10076;52.008;4.708;2023-03-29T13:55:16;101241.09;;;17.81;100.00
19831;BME280;10076;52.008;4.708;2023-03-29T13:57:24;101243.41;;;18.03;100.00
19831;BME280;10076;52.008;4.708;2023-03-29T13:59:59;101233.00;;;18.19;100.00
19831;BME280;10076;52.008;4.708;2023-03-29T14:02:48;101234.50;;;18.31;100.00
19831;BME280;10076;52.008;4.708;2023-03-29T14:05:22;101228.84;;;18.34;100.00
19831;BME280;10076;52.008;4.708;2023-03-29T14:07:51;101220.63;;;18.45;100.00
19831;BME280;10076;52.008;4.708;2023-03-29T14:10:25;101219.06;;;18.25;100.00
19831;BME280;10076;52.008;4.708;2023-03-29T14:12:51;101214.19;;;18.38;100.00
19831;BME280;10076;52.008;4.708;2023-03-29T14:15:26;101212.38;;;18.38;100.00
19831;BME280;10076;52.008;4.708;2023-03-29T14:18:00;101213.88;;;18.68;100.00
19831;BME280;10076;52.008;4.708;2023-03-29T14:20:25;101207.91;;;18.73;100.00
19831;BME280;10076;52.008;4.708;2023-03-29T14:22:51;101194.06;;;19.22;100.00
19831;BME280;10076;52.008;4.708;2023-03-29T14:25:18;101195.72;;;19.41;100.00
19831;BME280;10076;52.008;4.708;2023-03-29T14:27:46;101185.53;;;19.44;100.00
19831;BME280;10076;52.008;4.708;2023-03-29T14:30:26;101188.75;;;19.73;100.00
19831;BME280;10076;52.008;4.708;2023-03-29T14:32:52;101178.91;;;19.99;100.00